Time;durP1;ratioP1;P1;durP2;ratioP2;P2;SDS_P1;SDS_P2;PMS_P1;PMS_P2;Temp;Humidity;BMP_temperature;BMP_pressure;BME280_temperature;BME280_humidity;BME280_pressure;Samples;Min_cycle;Max_cycle;Signal;HPM_P1;HPM_P2
2022/02/06 00:01:11;;;;;;;67.90;37.78;;;205.10;2252.80;;;;;;5010808;28;20034;-55
2022/02/06 00:03:37;;;;;;;140.10;70.00;;;205.00;2252.80;;;;;;5010807;28;20079;-55
2022/02/06 00:06:03;;;;;;;70.85;38.95;;;205.10;2252.80;;;;;;5011020;28;20022;-55
2022/02/06 00:08:30;;;;;;;49.38;33.92;;;205.10;2252.80;;;;;;5010572;28;20076;-55
2022/02/06 00:10:56;;;;;;;34.65;24.20;;;205.00;2252.80;;;;;;5010806;28;20117;-55
2022/02/06 00:13:21;;;;;;;28.50;19.95;;;205.00;2252.80;;;;;;5010860;28;20440;-55
2022/02/06 00:15:47;;;;;;;31.15;19.30;;;180.00;2252.80;;;;;;5010639;28;20030;-55
2022/02/06 00:18:13;;;;;;;28.25;17.00;;;179.60;2252.80;;;;;;5010595;28;20041;-55
2022/02/06 00:20:49;;;;;;;27.70;15.45;;;179.40;2252.80;;;;;;5010660;28;20026;-55
2022/02/06 00:23:17;;;;;;;21.15;13.63;;;179.70;2252.80;;;;;;5010035;28;20076;-56
2022/02/06 00:30:52;;;;;;;17.27;11.82;;;179.60;2252.80;;;;;;5010679;28;20038;-54
2022/02/06 00:38:03;;;;;;;21.73;15.43;;;179.70;2252.80;;;;;;4999212;28;20131;-57
2022/02/06 00:41:25;;;;;;;21.60;14.98;;;179.90;2252.80;;;;;;4990563;28;20029;-57
2022/02/06 00:43:52;;;;;;;21.88;14.20;;;180.00;2252.80;;;;;;4990938;28;20034;-55
2022/02/06 00:46:19;;;;;;;30.83;17.02;;;180.00;2252.80;;;;;;4990720;28;20034;-54
2022/02/06 00:48:51;;;;;;;47.90;25.40;;;179.90;2252.80;;;;;;4990560;28;20563;-55
2022/02/06 00:54:21;;;;;;;66.50;39.33;;;179.90;2252.80;;;;;;4950071;29;20378;-60
2022/02/06 00:56:47;;;;;;;260.10;123.55;;;179.80;2252.80;;;;;;4949303;29;20533;-55
2022/02/06 00:59:13;;;;;;;129.95;69.00;;;179.70;2252.80;;;;;;4949430;29;20130;-57
2022/02/06 01:01:41;;;;;;;169.40;90.75;;;179.70;2252.80;;;;;;4949660;29;20033;-55
2022/02/06 01:04:09;;;;;;;78.43;46.47;;;179.70;2252.80;;;;;;4949702;29;20031;-55
2022/02/06 01:06:34;;;;;;;87.40;52.63;;;179.50;2252.80;;;;;;4952154;28;20118;-55
2022/02/06 01:09:00;;;;;;;48.72;28.90;;;179.40;2252.80;;;;;;4953546;29;20450;-55
2022/02/06 01:11:26;;;;;;;88.55;51.08;;;179.40;2252.80;;;;;;4953484;29;20036;-56
2022/02/06 01:14:05;;;;;;;67.53;42.97;;;179.40;2252.80;;;;;;4953228;29;20526;-56
2022/02/06 01:16:36;;;;;;;148.52;88.80;;;179.50;2252.80;;;;;;4953527;29;20114;-55
2022/02/06 01:19:28;;;;;;;72.22;42.28;;;179.50;2252.80;;;;;;4953438;29;20142;-58
2022/02/06 01:24:22;;;;;;;110.55;67.43;;;179.40;2252.80;;;;;;4959829;28;20031;-57
2022/02/06 01:26:59;;;;;;;107.45;68.20;;;179.40;2252.80;;;;;;4993755;28;20836;-57
2022/02/06 01:32:07;;;;;;;101.75;59.67;;;179.50;2252.80;;;;;;4993930;28;20033;-57
2022/02/06 01:34:45;;;;;;;115.57;73.80;;;179.50;2252.80;;;;;;4994045;28;20109;-57
2022/02/06 01:39:59;;;;;;;32.30;21.75;;;179.30;2252.80;;;;;;4993294;28;20388;-56
2022/02/06 01:42:34;;;;;;;78.88;43.28;;;179.40;2252.80;;;;;;4994170;28;20021;-56
2022/02/06 02:04:02;;;;;;;14.30;8.63;;;179.40;2252.80;;;;;;4993670;28;20105;-58
2022/02/06 02:13:20;;;;;;;51.22;30.27;;;179.50;2252.80;;;;;;4952566;29;20441;-57
2022/02/06 02:16:04;;;;;;;32.80;19.38;;;179.40;2252.80;;;;;;4938724;29;20114;-59
2022/02/06 02:47:38;;;;;;;44.43;25.80;;;179.40;2252.80;;;;;;4894943;29;20130;-58
2022/02/06 02:50:11;;;;;;;32.20;20.30;;;179.30;2252.80;;;;;;4894791;29;20043;-55
2022/02/06 02:57:53;;;;;;;23.70;18.13;;;179.20;2252.80;;;;;;4894516;29;20111;-56
2022/02/06 03:03:13;;;;;;;;;;;154.50;2252.80;;;;;;4992986;28;20385;-56
2022/02/06 03:05:40;;;;;;;32.20;22.05;;;154.30;2252.80;;;;;;4992227;28;19912;-57
2022/02/06 03:08:07;;;;;;;34.70;25.20;;;154.30;2252.80;;;;;;4992280;28;20105;-54
2022/02/06 03:10:35;;;;;;;24.58;17.70;;;154.00;2252.80;;;;;;4974915;28;20117;-55
2022/02/06 03:13:04;;;;;;;15.60;10.02;;;154.00;2252.80;;;;;;4991945;28;20048;-57
2022/02/06 03:15:45;;;;;;;10.85;7.95;;;154.00;2252.80;;;;;;4992100;28;20030;-55
2022/02/06 03:18:23;;;;;;;15.20;10.68;;;154.00;2252.80;;;;;;4992169;28;20070;-57
2022/02/06 03:20:52;;;;;;;16.42;12.82;;;153.80;2252.80;;;;;;4992019;28;20023;-57
2022/02/06 03:23:18;;;;;;;21.58;17.58;;;153.80;2252.80;;;;;;4991873;28;20369;-54
2022/02/06 03:25:49;;;;;;;26.50;16.50;;;153.70;2252.80;;;;;;4992107;28;20029;-57
2022/02/06 03:28:15;;;;;;;17.85;11.73;;;153.80;2252.80;;;;;;4991099;28;20043;-57
2022/02/06 03:30:41;;;;;;;12.35;8.18;;;153.70;2252.80;;;;;;4992016;28;20031;-57
2022/02/06 03:33:07;;;;;;;11.05;7.88;;;153.70;2252.80;;;;;;4991958;28;20022;-57
2022/02/06 03:35:33;;;;;;;14.88;7.72;;;153.70;2252.80;;;;;;4991799;28;20033;-54
2022/02/06 03:37:59;;;;;;;15.55;10.27;;;153.60;2252.80;;;;;;4991322;28;20040;-55
2022/02/06 03:40:28;;;;;;;25.98;14.82;;;128.90;2252.80;;;;;;4991704;28;20022;-56
2022/02/06 03:43:08;;;;;;;23.55;13.18;;;128.80;2252.80;;;;;;4991840;28;20030;-58
2022/02/06 03:45:44;;;;;;;32.22;18.80;;;128.60;2252.80;;;;;;4991890;28;20121;-56
2022/02/06 03:48:21;;;;;;;40.35;21.48;;;128.70;2252.80;;;;;;4991840;28;20501;-57
2022/02/06 03:50:50;;;;;;;20.73;13.95;;;128.80;2252.80;;;;;;4991405;28;20109;-57
2022/02/06 03:53:20;;;;;;;18.42;13.02;;;128.70;2252.80;;;;;;4991472;28;20049;-58
2022/02/06 03:55:47;;;;;;;16.38;10.32;;;128.70;2252.80;;;;;;4991552;28;20031;-56
2022/02/06 03:58:13;;;;;;;14.95;8.15;;;128.60;2252.80;;;;;;4991341;28;20050;-57
2022/02/06 04:00:39;;;;;;;19.65;11.25;;;128.60;2252.80;;;;;;4991217;28;20125;-57
2022/02/06 04:03:05;;;;;;;17.08;11.40;;;128.60;2252.80;;;;;;4991348;28;20058;-56
2022/02/06 04:05:31;;;;;;;16.30;10.82;;;128.60;2252.80;;;;;;4991457;28;20057;-57
2022/02/06 04:07:58;;;;;;;18.67;11.82;;;128.60;2252.80;;;;;;4991134;28;20483;-54
2022/02/06 04:10:31;;;;;;;26.17;12.65;;;128.50;2252.80;;;;;;4991440;28;20057;-56
2022/02/06 04:13:00;;;;;;;26.92;22.08;;;128.40;2252.80;;;;;;4990827;28;20460;-57
2022/02/06 04:15:36;;;;;;;26.55;18.38;;;128.40;2252.80;;;;;;4991066;28;20034;-57
2022/02/06 04:18:16;;;;;;;30.48;18.25;;;128.40;2252.80;;;;;;4991140;28;20073;-55
2022/02/06 04:20:43;;;;;;;26.92;17.17;;;128.30;2252.80;;;;;;4990812;28;20022;-57
2022/02/06 04:23:09;;;;;;;22.20;16.60;;;128.10;2252.80;;;;;;4990745;28;20038;-56
2022/02/06 04:25:35;;;;;;;25.63;16.90;;;128.20;2252.80;;;;;;4990882;28;20018;-56
2022/02/06 04:28:01;;;;;;;17.70;10.95;;;128.20;2252.80;;;;;;4990825;28;20137;-56
2022/02/06 04:30:27;;;;;;;20.10;13.40;;;128.10;2252.80;;;;;;4990913;28;20050;-57
2022/02/06 04:32:54;;;;;;;16.88;8.95;;;128.20;2252.80;;;;;;4990837;28;20557;-55
2022/02/06 04:35:21;;;;;;;19.80;10.70;;;103.30;2227.20;;;;;;4990716;28;20114;-56
2022/02/06 04:40:57;;;;;;;16.38;9.68;;;103.30;2227.20;;;;;;4990748;28;20025;-55
2022/02/06 05:13:42;;;;;;;38.72;19.08;;;103.00;2227.20;;;;;;4990525;28;20164;-55
2022/02/06 05:29:05;;;;;;;33.08;21.02;;;102.70;2227.20;;;;;;4990148;28;20113;-56
2022/02/06 05:34:06;;;;;;;42.25;22.60;;;102.60;2227.20;;;;;;4990407;28;20040;-57
2022/02/06 05:36:32;;;;;;;36.35;23.83;;;102.70;2227.20;;;;;;4990463;28;20114;-58
2022/02/06 05:38:57;;;;;;;52.33;29.63;;;102.70;2227.20;;;;;;4989754;28;20436;-55
2022/02/06 05:41:23;;;;;;;25.33;15.13;;;102.60;2227.20;;;;;;4990260;28;20027;-57
2022/02/06 05:43:50;;;;;;;21.27;13.15;;;102.60;2227.20;;;;;;4990271;28;20080;-58
2022/02/06 05:46:16;;;;;;;24.83;17.55;;;102.40;2227.20;;;;;;4990310;28;20114;-56
2022/02/06 05:48:43;;;;;;;24.27;13.88;;;77.70;2227.20;;;;;;4990237;28;20779;-56
2022/02/06 05:51:09;;;;;;;22.88;16.38;;;102.40;2227.20;;;;;;4990409;28;20022;-57
2022/02/06 05:53:35;;;;;;;25.23;15.98;;;102.40;2227.20;;;;;;4993667;28;20386;-54
2022/02/06 05:56:01;;;;;;;27.67;16.15;;;102.50;2227.20;;;;;;4993950;28;20022;-55
2022/02/06 05:58:27;;;;;;;24.80;13.25;;;102.50;2227.20;;;;;;4993184;28;20034;-57
2022/02/06 06:00:53;;;;;;;22.55;15.23;;;102.50;2227.20;;;;;;4993753;28;20062;-55
2022/02/06 06:03:18;;;;;;;18.25;13.02;;;102.50;2227.20;;;;;;4993580;28;20061;-55
2022/02/06 06:05:44;;;;;;;26.60;16.02;;;102.50;2227.20;;;;;;4993810;28;20038;-55
2022/02/06 06:08:10;;;;;;;28.63;16.83;;;102.50;2227.20;;;;;;4993597;28;20027;-57
2022/02/06 06:10:36;;;;;;;27.15;15.43;;;102.60;2227.20;;;;;;4993376;28;20033;-56
2022/02/06 06:13:02;;;;;;;29.20;17.13;;;102.50;2227.20;;;;;;4993262;28;20480;-56
2022/02/06 06:15:29;;;;;;;34.78;19.75;;;102.50;2227.20;;;;;;4992546;28;20027;-58
2022/02/06 06:17:56;;;;;;;48.78;30.38;;;102.50;2227.20;;;;;;4993381;28;20038;-57
2022/02/06 06:20:24;;;;;;;91.65;54.58;;;102.50;2227.20;;;;;;4993272;28;20030;-55
2022/02/06 06:22:53;;;;;;;59.30;36.97;;;102.50;2227.20;;;;;;4993212;28;20089;-57
2022/02/06 06:25:19;;;;;;;112.32;63.50;;;102.60;2227.20;;;;;;4992874;28;20069;-56
2022/02/06 06:27:45;;;;;;;96.68;54.75;;;102.60;2227.20;;;;;;4992721;28;20508;-57
2022/02/06 06:30:11;;;;;;;103.35;57.88;;;102.60;2227.20;;;;;;4992739;28;20380;-55
2022/02/06 06:32:36;;;;;;;92.95;56.78;;;102.70;2227.20;;;;;;4992079;28;20030;-55
2022/02/06 06:35:04;;;;;;;66.00;39.47;;;102.60;2227.20;;;;;;4993341;28;20030;-56
2022/02/06 06:37:31;;;;;;;70.75;43.40;;;102.60;2227.20;;;;;;4992565;28;20035;-56
2022/02/06 06:39:57;;;;;;;83.00;54.70;;;102.80;2227.20;;;;;;4992803;28;20034;-55
2022/02/06 06:42:23;;;;;;;142.75;91.45;;;102.80;2227.20;;;;;;4992182;28;20498;-55
2022/02/06 06:44:48;;;;;;;152.88;97.65;;;102.80;2227.20;;;;;;4992862;28;20027;-55
2022/02/06 06:47:14;;;;;;;213.23;136.75;;;102.90;2227.20;;;;;;4992832;28;20385;-54
2022/02/06 06:49:40;;;;;;;191.88;128.35;;;102.80;2227.20;;;;;;4992713;28;20030;-54
2022/02/06 06:52:07;;;;;;;211.00;136.13;;;102.80;2227.20;;;;;;4992613;28;20033;-56
2022/02/06 06:54:43;;;;;;;189.13;122.97;;;102.70;2227.20;;;;;;4992641;28;20049;-54
2022/02/06 06:57:33;;;;;;;188.82;113.63;;;102.80;2227.20;;;;;;4991939;28;20515;-55
2022/02/06 07:04:56;;;;;;;198.45;129.25;;;103.00;2227.20;;;;;;4991605;28;20480;-54
2022/02/06 07:07:22;;;;;;;;;;;103.00;2227.20;;;;;;4993166;28;20443;-55
2022/02/06 07:09:48;;;;;;;283.77;179.73;;;103.00;2227.20;;;;;;4992277;28;19906;-53
2022/02/06 07:12:14;;;;;;;199.63;123.57;;;103.10;2227.20;;;;;;4992408;28;20026;-54
2022/02/06 07:14:41;;;;;;;251.20;152.55;;;103.10;2227.20;;;;;;4991696;28;20432;-54
2022/02/06 07:17:07;;;;;;;188.73;119.13;;;103.20;2227.20;;;;;;4992285;28;20117;-55
2022/02/06 07:19:32;;;;;;;187.88;119.55;;;103.20;2227.20;;;;;;4992084;28;20567;-55
2022/02/06 07:22:00;;;;;;;238.05;160.77;;;103.30;2227.20;;;;;;4992039;28;20018;-55
2022/02/06 07:24:27;;;;;;;178.07;126.10;;;103.20;2227.20;;;;;;4992292;28;20050;-55
2022/02/06 07:26:57;;;;;;;198.05;135.05;;;103.20;2227.20;;;;;;4991846;28;20026;-55
2022/02/06 07:29:23;;;;;;;278.67;179.88;;;103.30;2227.20;;;;;;4992026;28;20052;-55
2022/02/06 07:31:51;;;;;;;246.70;167.25;;;103.30;2227.20;;;;;;4991763;28;20026;-55
2022/02/06 07:34:16;;;;;;;236.15;163.00;;;103.30;2227.20;;;;;;4991570;28;20033;-55
2022/02/06 07:36:42;;;;;;;255.98;171.82;;;128.10;2252.80;;;;;;4991753;28;20034;-55
2022/02/06 07:39:08;;;;;;;262.13;182.30;;;128.20;2252.80;;;;;;4991176;28;20050;-54
2022/02/06 07:41:34;;;;;;;253.98;168.70;;;128.10;2252.80;;;;;;4991725;28;20398;-54
2022/02/06 07:44:00;;;;;;;227.23;157.80;;;128.20;2252.80;;;;;;4991473;28;20037;-55
2022/02/06 07:46:31;;;;;;;174.25;116.88;;;128.20;2252.80;;;;;;4991474;28;20023;-54
2022/02/06 07:49:02;;;;;;;162.27;104.03;;;128.00;2252.80;;;;;;4991537;28;20022;-55
2022/02/06 07:51:29;;;;;;;156.38;102.53;;;103.30;2227.20;;;;;;4991512;28;20362;-54
2022/02/06 07:53:54;;;;;;;153.20;99.57;;;103.30;2227.20;;;;;;4991582;28;20468;-55
2022/02/06 07:56:20;;;;;;;180.13;120.28;;;128.40;2252.80;;;;;;4991339;28;20036;-55
2022/02/06 07:58:46;;;;;;;201.18;137.18;;;179.50;2252.80;;;;;;4990819;28;20128;-55
2022/02/06 08:01:12;;;;;;;208.10;139.75;;;179.90;2252.80;;;;;;4991706;28;20046;-54
2022/02/06 08:03:37;;;;;;;135.82;92.05;;;179.40;2252.80;;;;;;4991192;28;20038;-55
2022/02/06 08:06:03;;;;;;;144.00;102.38;;;179.40;2252.80;;;;;;4990803;28;20034;-55
2022/02/06 08:08:29;;;;;;;119.57;92.95;;;179.70;2252.80;;;;;;4991246;28;20405;-54
2022/02/06 08:10:59;;;;;;;88.55;63.88;;;205.20;2252.80;;;;;;4991346;28;20054;-59
2022/02/06 08:13:38;;;;;;;109.30;76.68;;;231.20;2252.80;;;;;;4990919;28;20038;-57
2022/02/06 08:16:05;;;;;;;96.25;73.40;;;282.20;2099.20;;;;;;4990260;28;20026;-56
2022/02/06 08:18:31;;;;;;;113.70;94.05;;;307.50;2022.40;;;;;;4991107;28;20065;-58
2022/02/06 08:20:57;;;;;;;97.30;73.72;;;307.30;1996.80;;;;;;4990908;28;20061;-59
2022/02/06 08:23:22;;;;;;;74.15;51.42;;;333.10;1843.20;;;;;;4991223;28;20026;-56
2022/02/06 08:25:48;;;;;;;105.38;93.78;;;358.60;1612.80;;;;;;4990684;28;20607;-58
2022/02/06 08:28:15;;;;;;;89.93;79.60;;;358.80;1740.80;;;;;;4988732;28;20492;-59
2022/02/06 08:30:42;;;;;;;90.22;75.10;;;358.70;1715.20;;;;;;4989075;28;20022;-59
2022/02/06 08:33:08;;;;;;;87.10;73.88;;;359.30;1612.80;;;;;;4988952;28;20030;-59
2022/02/06 08:35:34;;;;;;;26.58;21.73;;;384.10;1587.20;;;;;;4989222;28;20113;-56
2022/02/06 08:38:00;;;;;;;97.55;86.88;;;384.70;1408.00;;;;;;4988861;28;20042;-59
2022/02/06 08:40:25;;;;;;;72.15;60.30;;;384.40;1561.60;;;;;;4988606;28;20022;-59
2022/02/06 08:42:51;;;;;;;65.63;53.13;;;384.90;1510.40;;;;;;4989019;28;20433;-58
2022/02/06 08:45:18;;;;;;;85.18;73.82;;;410.30;1459.20;;;;;;4989269;28;20026;-57
2022/02/06 08:47:45;;;;;;;77.90;63.83;;;435.20;1459.20;;;;;;4988783;28;20037;-57
2022/02/06 08:50:12;;;;;;;66.15;55.85;;;410.20;1459.20;;;;;;4990275;28;20122;-57
2022/02/06 08:52:38;;;;;;;102.80;88.90;;;460.90;1382.40;;;;;;4991109;28;20105;-59
2022/02/06 08:55:08;;;;;;;144.80;122.30;;;460.80;1433.60;;;;;;4990884;28;20417;-59
2022/02/06 08:57:34;;;;;;;105.90;93.95;;;435.50;1433.60;;;;;;4990441;28;20042;-60
2022/02/06 09:00:00;;;;;;;77.78;67.90;;;461.10;1433.60;;;;;;4990620;28;20065;-60
2022/02/06 09:02:26;;;;;;;43.95;37.42;;;436.10;1331.20;;;;;;4990437;28;20389;-58
2022/02/06 09:04:52;;;;;;;26.60;23.77;;;461.50;1254.40;;;;;;4990472;28;20027;-59
2022/02/06 09:07:20;;;;;;;27.10;24.23;;;486.70;1203.20;;;;;;4990449;28;20117;-59
2022/02/06 09:09:48;;;;;;;21.02;16.60;;;461.70;1177.60;;;;;;4990380;28;20042;-57
2022/02/06 09:12:15;;;;;;;28.63;24.13;;;486.50;1126.40;;;;;;4990540;28;20026;-58
2022/02/06 09:14:41;;;;;;;18.73;14.32;;;486.80;1100.80;;;;;;4990613;28;20107;-59
2022/02/06 09:17:09;;;;;;;27.80;23.40;;;487.10;1075.20;;;;;;4990442;28;20121;-58
2022/02/06 09:19:36;;;;;;;18.55;13.75;;;512.20;1075.20;;;;;;4990518;28;20039;-59
2022/02/06 09:22:03;;;;;;;27.13;24.25;;;512.40;1024.00;;;;;;4990472;28;20034;-58
2022/02/06 09:24:29;;;;;;;27.70;24.48;;;512.90;1024.00;;;;;;4990382;28;20070;-59
2022/02/06 09:26:56;;;;;;;23.67;21.33;;;512.80;1024.00;;;;;;4991311;28;20026;-60
2022/02/06 09:29:22;;;;;;;31.13;28.27;;;512.60;1024.00;;;;;;4994341;28;20034;-59
2022/02/06 09:31:50;;;;;;;22.20;18.55;;;512.90;998.40;;;;;;4994195;28;20034;-60
2022/02/06 09:36:43;;;;;;;125.47;111.78;;;538.00;947.20;;;;;;4994368;28;20038;-57
2022/02/06 09:39:11;;;;;;;95.35;85.15;;;537.70;998.40;;;;;;4993770;28;20392;-58
2022/02/06 09:41:40;;;;;;;34.55;29.90;;;512.30;972.80;;;;;;4993589;28;20164;-60
2022/02/06 09:44:06;;;;;;;38.10;28.08;;;487.30;1024.00;;;;;;4994171;28;20031;-59
2022/02/06 09:46:34;;;;;;;28.00;21.83;;;487.00;998.40;;;;;;4994149;28;20109;-58
2022/02/06 09:49:01;;;;;;;34.25;26.30;;;461.70;998.40;;;;;;4993944;28;20034;-58
2022/02/06 09:51:27;;;;;;;13.93;11.77;;;460.80;1049.60;;;;;;4993759;28;20023;-59
2022/02/06 09:53:53;;;;;;;24.63;21.42;;;435.40;1100.80;;;;;;4993949;28;20054;-58
2022/02/06 09:56:22;;;;;;;9.65;7.68;;;410.20;1152.00;;;;;;4993363;28;20046;-58
2022/02/06 09:59:01;;;;;;;42.45;28.83;;;409.90;1126.40;;;;;;4993818;28;20046;-58
2022/02/06 10:01:27;;;;;;;21.58;17.13;;;409.60;1152.00;;;;;;4993017;28;20377;-59
2022/02/06 10:04:06;;;;;;;30.30;21.27;;;384.90;1152.00;;;;;;4992926;28;20033;-56
2022/02/06 10:06:59;;;;;;;19.08;11.77;;;384.50;1126.40;;;;;;4991030;28;20038;-55
2022/02/06 10:09:40;;;;;;;15.65;13.60;;;384.40;1177.60;;;;;;4991268;28;20042;-58
2022/02/06 10:12:07;;;;;;;23.77;19.05;;;384.20;1177.60;;;;;;4991667;28;20033;-58
2022/02/06 10:14:34;;;;;;;14.32;12.68;;;359.30;1177.60;;;;;;4991853;28;20041;-58
2022/02/06 10:17:00;;;;;;;22.17;17.95;;;358.90;1177.60;;;;;;4991652;28;20029;-65
2022/02/06 10:19:27;;;;;;;20.08;15.70;;;358.70;1177.60;;;;;;4991387;28;20038;-61
2022/02/06 10:21:54;;;;;;;11.25;8.15;;;358.80;1203.20;;;;;;4991139;28;20030;-63
2022/02/06 10:24:28;;;;;;;19.50;15.73;;;359.10;1177.60;;;;;;4991779;28;20037;-58
2022/02/06 10:29:42;;;;;;;;;;;384.10;1177.60;;;;;;4991780;28;20057;-61
2022/02/06 10:32:15;;;;;;;12.02;8.65;;;384.20;1152.00;;;;;;4991291;28;19952;-60
2022/02/06 10:34:41;;;;;;;11.07;6.68;;;384.00;1126.40;;;;;;4991199;28;20084;-62
2022/02/06 10:37:18;;;;;;;22.48;18.27;;;384.50;1152.00;;;;;;4991132;28;20030;-60
2022/02/06 10:39:50;;;;;;;17.38;14.90;;;384.70;1177.60;;;;;;4991230;28;20370;-59
2022/02/06 10:42:24;;;;;;;10.13;8.82;;;384.60;1152.00;;;;;;4991414;28;20913;-59
2022/02/06 10:44:51;;;;;;;10.18;7.72;;;384.10;1152.00;;;;;;4990968;28;20026;-60
2022/02/06 10:47:31;;;;;;;14.70;12.40;;;359.30;1152.00;;;;;;4990526;28;20022;-61
2022/02/06 10:50:07;;;;;;;18.60;15.23;;;359.10;1228.80;;;;;;4991076;28;20036;-59
2022/02/06 10:52:33;;;;;;;10.10;6.90;;;384.00;1203.20;;;;;;4991058;28;20061;-59
2022/02/06 10:55:00;;;;;;;20.80;12.50;;;384.00;1152.00;;;;;;4990879;28;20104;-61
2022/02/06 10:57:28;;;;;;;19.77;14.45;;;359.10;1228.80;;;;;;4990976;28;20034;-59
2022/02/06 10:59:56;;;;;;;21.38;14.60;;;359.10;1228.80;;;;;;4990333;28;20042;-59
2022/02/06 11:02:46;;;;;;;24.65;16.52;;;359.10;1203.20;;;;;;4973343;28;20397;-59
2022/02/06 11:07:57;;;;;;;16.92;10.90;;;358.90;1254.40;;;;;;4992314;28;20038;-60
2022/02/06 11:10:25;;;;;;;31.88;22.98;;;359.00;1280.00;;;;;;4992320;28;20350;-59
2022/02/06 11:12:56;;;;;;;27.42;17.10;;;358.90;1280.00;;;;;;4992516;28;20028;-61
2022/02/06 11:15:24;;;;;;;25.52;16.67;;;358.90;1305.60;;;;;;4992267;28;20480;-57
2022/02/06 11:18:05;;;;;;;34.75;20.38;;;358.80;1305.60;;;;;;4992101;28;20027;-58
2022/02/06 11:20:32;;;;;;;39.65;22.60;;;359.00;1305.60;;;;;;4992142;28;20477;-59
2022/02/06 11:23:02;;;;;;;43.80;23.13;;;359.10;1331.20;;;;;;4992195;28;20477;-59
2022/02/06 11:25:30;;;;;;;39.97;23.35;;;359.10;1331.20;;;;;;4992106;28;20030;-57
2022/02/06 11:27:57;;;;;;;21.45;11.98;;;359.20;1305.60;;;;;;4991558;28;20054;-59
2022/02/06 11:30:23;;;;;;;34.22;20.58;;;359.10;1305.60;;;;;;4991748;28;20026;-58
2022/02/06 11:32:48;;;;;;;29.52;18.33;;;359.00;1356.80;;;;;;4991714;28;20109;-62
2022/02/06 11:35:19;;;;;;;40.72;22.85;;;359.00;1382.40;;;;;;4991837;28;20408;-64
2022/02/06 11:46:56;;;;;;;17.80;12.80;;;359.20;1433.60;;;;;;4991708;28;20467;-64
2022/02/06 11:49:22;;;;;;;41.45;29.33;;;359.20;1408.00;;;;;;4893348;29;20032;-61
2022/02/06 11:51:57;;;;;;;21.52;11.73;;;359.20;1408.00;;;;;;4893674;29;20596;-58
2022/02/06 11:54:28;;;;;;;54.67;39.10;;;359.20;1433.60;;;;;;4893836;29;20103;-62
2022/02/06 11:57:13;;;;;;;115.00;77.38;;;359.30;1408.00;;;;;;4893762;29;20068;-62
2022/02/06 11:59:38;;;;;;;103.20;69.43;;;359.20;1408.00;;;;;;4893458;29;20112;-64
2022/02/06 12:02:25;;;;;;;103.05;72.72;;;359.30;1433.60;;;;;;4893823;29;20024;-62
2022/02/06 12:05:09;;;;;;;184.25;125.65;;;359.30;1408.00;;;;;;4893825;29;20033;-59
2022/02/06 12:07:53;;;;;;;29.30;26.30;;;384.00;1408.00;;;;;;4893729;29;20040;-58
2022/02/06 12:10:34;;;;;;;16.17;10.52;;;384.00;1433.60;;;;;;4893267;29;20036;-62
2022/02/06 12:13:30;;;;;;;36.97;26.83;;;384.00;1484.80;;;;;;4893214;29;20092;-61
2022/02/06 12:16:00;;;;;;;35.60;24.98;;;384.00;1408.00;;;;;;4893384;29;20032;-59
2022/02/06 12:18:28;;;;;;;55.13;32.75;;;384.10;1459.20;;;;;;4892130;29;20073;-58
2022/02/06 12:21:08;;;;;;;23.67;16.73;;;384.20;1433.60;;;;;;4890731;29;20506;-58
2022/02/06 12:23:42;;;;;;;50.08;34.33;;;384.20;1433.60;;;;;;4891458;29;20208;-58
2022/02/06 12:26:30;;;;;;;60.92;39.30;;;384.30;1433.60;;;;;;4943639;28;20038;-59
2022/02/06 12:29:02;;;;;;;110.18;73.53;;;384.10;1433.60;;;;;;4973090;28;20054;-59
2022/02/06 12:31:33;;;;;;;67.63;43.22;;;384.10;1408.00;;;;;;4989581;28;20440;-58
2022/02/06 12:34:10;;;;;;;107.70;63.80;;;384.00;1433.60;;;;;;4988867;28;20030;-58
2022/02/06 12:39:27;;;;;;;58.17;36.03;;;359.30;1433.60;;;;;;4989133;28;20637;-58
2022/02/06 12:41:55;;;;;;;42.25;28.45;;;384.00;1459.20;;;;;;4989242;28;20376;-59
2022/02/06 12:44:24;;;;;;;54.78;33.40;;;384.10;1484.80;;;;;;4988717;28;20037;-57
2022/02/06 12:46:51;;;;;;;60.22;36.10;;;384.10;1459.20;;;;;;4988810;28;20026;-61
2022/02/06 12:49:21;;;;;;;50.58;30.77;;;384.10;1484.80;;;;;;4987976;28;20472;-58
2022/02/06 12:51:55;;;;;;;94.38;51.15;;;384.10;1433.60;;;;;;4985766;28;20017;-58
2022/02/06 12:54:22;;;;;;;74.47;44.47;;;384.00;1484.80;;;;;;4986445;28;20477;-56
2022/02/06 12:56:48;;;;;;;32.83;21.27;;;384.10;1459.20;;;;;;4986311;28;20036;-59
2022/02/06 12:59:21;;;;;;;78.63;42.22;;;384.20;1484.80;;;;;;4986413;28;20035;-55
2022/02/06 13:01:48;;;;;;;48.25;26.48;;;384.20;1459.20;;;;;;4986977;28;20052;-59
2022/02/06 13:04:16;;;;;;;67.75;37.03;;;384.10;1484.80;;;;;;4991843;28;20026;-54
2022/02/06 13:06:44;;;;;;;26.80;18.13;;;384.20;1459.20;;;;;;4991907;28;20061;-55
2022/02/06 13:09:19;;;;;;;38.40;22.67;;;384.30;1459.20;;;;;;4991689;28;20113;-55
2022/02/06 13:12:02;;;;;;;45.10;28.15;;;384.30;1484.80;;;;;;4988898;28;20022;-55
2022/02/06 13:20:04;;;;;;;41.95;25.98;;;384.30;1484.80;;;;;;4972833;28;20045;-56
2022/02/06 13:25:50;;;;;;;77.47;45.80;;;384.30;1459.20;;;;;;4989346;28;20465;-56
2022/02/06 13:34:23;;;;;;;47.75;33.22;;;384.40;1433.60;;;;;;4991335;28;20054;-55
2022/02/06 13:39:05;;;;;;;52.08;33.45;;;384.40;1433.60;;;;;;4990729;28;20469;-58
2022/02/06 13:41:34;;;;;;;53.45;31.23;;;384.50;1433.60;;;;;;4991293;28;20030;-62
2022/02/06 13:44:01;;;;;;;78.68;46.35;;;384.60;1433.60;;;;;;4991082;28;20429;-55
2022/02/06 13:46:31;;;;;;;110.25;61.08;;;384.60;1433.60;;;;;;4991162;28;20389;-62
2022/02/06 13:48:58;;;;;;;18.83;13.25;;;384.60;1459.20;;;;;;4991146;28;20026;-61
2022/02/06 13:51:35;;;;;;;10.88;6.07;;;384.60;1408.00;;;;;;4990625;28;20022;-60
2022/02/06 13:54:04;;;;;;;18.35;12.82;;;384.60;1382.40;;;;;;4989859;28;20026;-55
2022/02/06 13:56:31;;;;;;;15.00;9.05;;;384.60;1382.40;;;;;;4990126;28;20030;-56
2022/02/06 13:59:00;;;;;;;13.73;7.47;;;384.80;1408.00;;;;;;4991196;28;20508;-54
2022/02/06 14:01:47;;;;;;;21.33;15.27;;;384.80;1382.40;;;;;;4991595;28;20080;-56
2022/02/06 14:04:30;;;;;;;33.78;28.23;;;384.70;1382.40;;;;;;4991672;28;20088;-56
2022/02/06 14:07:09;;;;;;;47.50;28.27;;;384.40;1382.40;;;;;;4991850;28;20046;-57
2022/02/06 14:12:20;;;;;;;32.60;22.10;;;384.20;1408.00;;;;;;4990213;28;20037;-58
2022/02/06 14:14:54;;;;;;;32.75;22.13;;;384.10;1433.60;;;;;;4991651;28;20027;-59
2022/02/06 14:17:25;;;;;;;20.75;13.20;;;384.20;1433.60;;;;;;4991586;28;20034;-58
2022/02/06 14:19:52;;;;;;;40.03;33.83;;;384.10;1408.00;;;;;;4991633;28;20038;-61
2022/02/06 14:22:32;;;;;;;56.47;39.65;;;384.10;1408.00;;;;;;4991501;28;20034;-57
2022/02/06 14:24:59;;;;;;;37.92;25.48;;;384.10;1433.60;;;;;;4991493;28;20034;-58
2022/02/06 14:27:41;;;;;;;26.42;19.63;;;384.00;1433.60;;;;;;4991313;28;20045;-59
2022/02/06 14:30:39;;;;;;;29.52;21.15;;;384.10;1459.20;;;;;;4991096;28;20026;-57
2022/02/06 14:33:07;;;;;;;50.95;35.60;;;384.10;1433.60;;;;;;4991494;28;20045;-57
2022/02/06 14:36:00;;;;;;;41.13;30.52;;;384.00;1459.20;;;;;;4991476;28;20106;-57
2022/02/06 14:41:46;;;;;;;83.18;53.22;;;384.40;1459.20;;;;;;4950059;29;20062;-61
2022/02/06 14:44:04;;;;;;;55.40;37.55;;;384.30;1459.20;;;;;;4949282;29;20504;-62
2022/02/06 14:46:32;;;;;;;67.13;43.30;;;384.10;1459.20;;;;;;4949715;29;20136;-61
2022/02/06 14:48:59;;;;;;;41.67;29.10;;;384.10;1459.20;;;;;;4949689;29;20039;-61
2022/02/06 14:51:27;;;;;;;46.55;29.73;;;384.10;1459.20;;;;;;4946699;29;20056;-57
2022/02/06 14:54:04;;;;;;;21.90;14.73;;;359.30;1459.20;;;;;;4938715;29;20035;-58
2022/02/06 14:56:32;;;;;;;24.30;18.00;;;359.20;1433.60;;;;;;4937999;29;20039;-58
2022/02/06 14:58:59;;;;;;;23.50;14.18;;;359.10;1459.20;;;;;;4946770;29;20067;-59
2022/02/06 15:01:25;;;;;;;96.18;60.88;;;359.30;1433.60;;;;;;4949855;29;20102;-58
2022/02/06 15:03:50;;;;;;;108.28;71.28;;;359.30;1510.40;;;;;;4949703;29;20031;-57
2022/02/06 15:06:16;;;;;;;42.08;29.33;;;359.20;1510.40;;;;;;4949611;29;20063;-58
2022/02/06 15:08:42;;;;;;;95.68;63.25;;;359.20;1510.40;;;;;;4949713;29;20127;-61
2022/02/06 15:11:08;;;;;;;46.25;33.75;;;359.00;1536.00;;;;;;4949445;29;20039;-58